Terminal Aerodrome Forecast
Issued by NWS Wilmington, OH

Current Version | Previous Version | Text Only | Print | Product List | Glossary Off
Versions: 1 2 3 4 5 6 7 8 9 10 11 12 13 14 15 16 17 18 19 20 21 22 23 24 25 26 27

959
FTUS41 KILN 131806 AAA
TAFCMH
TAF AMD
KCMH 131806Z 1318/1418 20010G18KT P6SM BKN070
     FM132300 20017G27KT P6SM -SHSN OVC050
     FM140200 23017G29KT P6SM VCSH OVC025
     FM140400 27015G25KT P6SM OVC022
     FM140800 31012G21KT P6SM OVC018
     FM141500 35007KT P6SM SCT015=

USA.gov is the U.S. government's official web portal to all federal, state and local government web resources and services.